createdAt,value
2018-05-07T00:00:11.393Z,2.83
2018-05-07T00:02:41.814Z,4.62
2018-05-07T00:05:12.455Z,2.55
2018-05-07T00:07:42.869Z,2.60
2018-05-07T00:10:13.503Z,2.83
2018-05-07T00:12:43.918Z,2.60
2018-05-07T00:15:14.550Z,3.30
2018-05-07T00:17:44.966Z,2.45
2018-05-07T00:20:15.418Z,2.35
2018-05-07T00:22:45.825Z,1.70
2018-05-07T00:25:17.035Z,3.30
2018-05-07T00:27:47.446Z,2.42
2018-05-07T00:30:17.908Z,2.28
2018-05-07T00:32:48.637Z,3.75
2018-05-07T00:35:19.076Z,2.65
2018-05-07T00:37:50.266Z,3.00
2018-05-07T00:40:20.706Z,4.45
2018-05-07T00:42:51.123Z,2.72
2018-05-07T00:45:21.546Z,2.22
2018-05-07T00:47:51.967Z,1.75
2018-05-07T00:50:22.405Z,2.00
2018-05-07T00:52:52.523Z,1.57
2018-05-07T00:55:23.254Z,2.62
2018-05-07T00:57:53.350Z,2.37
2018-05-07T01:00:24.239Z,2.20
2018-05-07T01:02:54.635Z,1.77
2018-05-07T01:05:25.069Z,1.98
2018-05-07T01:07:55.486Z,2.85
2018-05-07T01:10:25.916Z,2.17
2018-05-07T01:12:57.200Z,2.35
2018-05-07T01:15:27.606Z,1.48
2018-05-07T01:17:58.227Z,2.22
2018-05-07T01:20:28.828Z,1.60
2018-05-07T01:23:00.740Z,2.12
2018-05-07T01:25:31.158Z,2.03
2018-05-07T01:28:01.562Z,1.60
2018-05-07T01:30:31.987Z,1.60
2018-05-07T01:33:02.396Z,2.80
2018-05-07T01:35:32.818Z,2.37
2018-05-07T01:38:03.251Z,2.60
2018-05-07T01:40:33.678Z,1.55
2018-05-07T01:43:03.851Z,1.75
2018-05-07T01:45:35.031Z,1.60
2018-05-07T01:48:05.439Z,4.93
2018-05-07T01:50:35.863Z,1.90
2018-05-07T01:53:06.281Z,1.85
2018-05-07T01:55:36.748Z,1.83
2018-05-07T01:58:07.170Z,1.98
2018-05-07T02:00:37.803Z,2.85
2018-05-07T02:03:08.424Z,1.85
2018-05-07T02:05:38.859Z,1.85
2018-05-07T02:08:09.462Z,2.00
2018-05-07T02:10:39.910Z,2.45
2018-05-07T02:13:10.316Z,2.12
2018-05-07T02:15:40.777Z,2.70
2018-05-07T02:18:11.210Z,1.92
2018-05-07T02:20:41.642Z,1.70
2018-05-07T02:23:12.056Z,2.10
2018-05-07T02:25:42.510Z,3.37
2018-05-07T02:28:12.937Z,2.58
2018-05-07T02:30:43.393Z,2.22
2018-05-07T02:33:13.798Z,1.85
2018-05-07T02:35:44.234Z,2.87
2018-05-07T02:38:14.654Z,1.85
2018-05-07T02:40:44.760Z,4.43
2018-05-07T02:43:15.155Z,2.22
2018-05-07T02:45:45.796Z,2.37
2018-05-07T02:48:16.230Z,2.75
2018-05-07T02:50:46.647Z,3.60
2018-05-07T02:53:17.066Z,2.53
2018-05-07T02:55:47.514Z,2.65
2018-05-07T02:58:17.941Z,2.95
2018-05-07T03:00:48.778Z,2.85
2018-05-07T03:03:19.391Z,3.10
2018-05-07T03:05:50.215Z,2.10
2018-05-07T03:08:21.449Z,2.92
2018-05-07T03:10:51.887Z,3.37
2018-05-07T03:13:23.075Z,2.97
2018-05-07T03:15:53.522Z,2.78
2018-05-07T03:18:23.945Z,2.78
2018-05-07T03:20:54.394Z,3.35
2018-05-07T03:23:24.993Z,2.00
2018-05-07T03:25:55.448Z,2.25
2018-05-07T03:28:26.071Z,2.58
2018-05-07T03:30:56.517Z,3.87
2018-05-07T03:33:28.071Z,1.98
2018-05-07T03:35:58.513Z,3.62
2018-05-07T03:38:28.938Z,2.90
2018-05-07T03:40:59.389Z,1.98
2018-05-07T03:43:30.590Z,2.62
2018-05-07T03:46:01.246Z,2.33
2018-05-07T03:48:31.858Z,2.35
2018-05-07T03:51:02.307Z,2.72
2018-05-07T03:53:34.118Z,3.23
2018-05-07T03:56:04.546Z,2.40
2018-05-07T03:58:34.978Z,3.03
2018-05-07T04:01:05.706Z,3.70
2018-05-07T04:03:37.074Z,2.28
2018-05-07T04:06:07.527Z,2.70
2018-05-07T04:08:37.950Z,3.25
2018-05-07T04:11:08.409Z,2.75
2018-05-07T04:13:38.823Z,2.28
2018-05-07T04:16:09.480Z,2.12
2018-05-07T04:18:57.185Z,3.17
2018-05-07T04:21:27.805Z,3.37
2018-05-07T04:24:05.443Z,2.22
2018-05-07T04:26:36.082Z,3.28
2018-05-07T04:29:07.274Z,3.22
2018-05-07T04:31:37.722Z,4.12
2018-05-07T04:34:08.136Z,3.80
2018-05-07T04:36:38.786Z,3.37
2018-05-07T04:39:09.207Z,3.37
2018-05-07T04:41:40.672Z,13.00
2018-05-07T04:44:12.768Z,28.85
2018-05-07T04:46:45.826Z,34.30
2018-05-07T04:49:16.971Z,35.00
2018-05-07T04:51:47.625Z,31.77
2018-05-07T04:54:18.285Z,25.67
2018-05-07T04:56:48.956Z,22.85
2018-05-07T04:59:19.799Z,8.83
2018-05-07T05:01:50.288Z,8.45
2018-05-07T05:04:20.355Z,8.50
2018-05-07T05:06:50.778Z,5.78
2018-05-07T05:09:21.604Z,7.97
2018-05-07T05:11:52.446Z,7.73
2018-05-07T05:14:22.835Z,4.80
2018-05-07T05:16:52.927Z,6.37
2018-05-07T05:19:23.006Z,8.90
2018-05-07T05:21:53.478Z,14.43
2018-05-07T05:24:24.898Z,23.25
2018-05-07T05:26:55.694Z,19.75
2018-05-07T05:29:26.382Z,19.55
2018-05-07T05:31:57.114Z,13.90
2018-05-07T05:34:27.553Z,12.27
2018-05-07T05:36:57.430Z,9.67
2018-05-07T05:39:28.171Z,9.80
2018-05-07T05:41:59.014Z,6.05
2018-05-07T05:44:29.078Z,6.50
2018-05-07T05:46:59.509Z,8.05
2018-05-07T05:49:29.576Z,6.57
2018-05-07T05:52:00.747Z,6.78
2018-05-07T05:54:31.371Z,13.23
2018-05-07T05:57:02.091Z,16.50
2018-05-07T05:59:33.559Z,16.05
2018-05-07T06:02:04.299Z,17.87
2018-05-07T06:04:35.748Z,13.00
2018-05-07T06:07:06.445Z,12.55
2018-05-07T06:09:36.537Z,9.50
2018-05-07T06:12:06.962Z,8.40
2018-05-07T06:14:37.132Z,6.60
2018-05-07T06:17:07.983Z,7.05
2018-05-07T06:19:38.433Z,4.75
2018-05-07T06:22:08.854Z,5.32
2018-05-07T06:24:39.441Z,4.65
2018-05-07T06:27:10.886Z,3.97
2018-05-07T06:29:42.386Z,5.25
2018-05-07T06:32:12.239Z,6.30
2018-05-07T06:34:43.680Z,4.70
2018-05-07T06:37:14.483Z,6.07
2018-05-07T06:39:45.137Z,4.40
2018-05-07T06:42:15.963Z,7.63
2018-05-07T06:44:47.133Z,5.37
2018-05-07T06:47:17.968Z,3.55
2018-05-07T06:49:48.595Z,3.17
2018-05-07T06:52:19.229Z,4.22
2018-05-07T06:54:49.860Z,3.87
2018-05-07T06:57:20.482Z,4.07
2018-05-07T06:59:50.920Z,5.30
2018-05-07T07:02:21.446Z,4.87
2018-05-07T07:04:52.173Z,4.82
2018-05-07T07:07:24.363Z,3.20
2018-05-07T07:09:55.903Z,3.90
2018-05-07T07:12:27.135Z,3.17
2018-05-07T07:14:57.770Z,4.43
2018-05-07T07:17:28.198Z,3.85
2018-05-07T07:19:58.634Z,4.22
2018-05-07T07:22:29.061Z,5.18
2018-05-07T07:24:59.683Z,2.37
2018-05-07T07:27:30.298Z,2.72
2018-05-07T07:30:00.723Z,3.58
2018-05-07T07:32:32.095Z,3.00
2018-05-07T07:35:02.727Z,2.42
2018-05-07T07:37:33.344Z,2.67
2018-05-07T07:40:04.538Z,3.72
2018-05-07T07:42:35.154Z,2.53
2018-05-07T07:45:05.779Z,3.92
2018-05-07T07:47:36.187Z,2.87
2018-05-07T07:50:06.639Z,2.60
2018-05-07T07:52:37.251Z,2.60
2018-05-07T07:55:08.463Z,3.62
2018-05-07T07:57:39.074Z,2.45
2018-05-07T08:00:09.741Z,2.97
2018-05-07T08:02:40.150Z,2.05
2018-05-07T08:05:10.611Z,2.35
2018-05-07T08:07:41.755Z,2.45
2018-05-07T08:10:12.386Z,3.20
2018-05-07T08:12:42.990Z,4.07
2018-05-07T08:15:13.441Z,3.25
2018-05-07T08:17:44.038Z,2.55
2018-05-07T08:20:14.453Z,2.85
2018-05-07T08:22:45.055Z,2.45
2018-05-07T08:25:16.474Z,3.47
2018-05-07T08:27:47.094Z,3.55
2018-05-07T08:30:17.545Z,2.45
2018-05-07T08:32:48.156Z,4.05
2018-05-07T08:35:18.603Z,4.78
2018-05-07T08:37:49.210Z,3.05
2018-05-07T08:40:19.843Z,2.28
2018-05-07T08:42:50.249Z,2.45
2018-05-07T08:45:21.636Z,2.80
2018-05-07T08:47:52.239Z,2.35
2018-05-07T08:50:22.895Z,3.15
2018-05-07T08:52:53.351Z,5.12
2018-05-07T08:55:24.190Z,3.65
2018-05-07T08:57:54.814Z,3.12
2018-05-07T09:00:25.451Z,5.35
2018-05-07T09:02:55.538Z,5.83
2018-05-07T09:05:25.969Z,2.22
2018-05-07T09:07:56.596Z,3.33
2018-05-07T09:10:27.281Z,3.47
2018-05-07T09:12:57.879Z,3.10
2018-05-07T09:15:28.518Z,3.70
2018-05-07T09:17:58.937Z,2.28
2018-05-07T09:20:29.569Z,3.10
2018-05-07T09:23:00.183Z,3.55
2018-05-07T09:25:30.831Z,4.12
2018-05-07T09:28:01.447Z,4.65
2018-05-07T09:30:32.081Z,5.00
2018-05-07T09:33:03.438Z,6.12
2018-05-07T09:35:33.547Z,8.60
2018-05-07T09:38:03.670Z,5.07
2018-05-07T09:40:34.115Z,3.85
2018-05-07T09:43:04.766Z,3.33
2018-05-07T09:45:35.588Z,3.25
2018-05-07T09:48:07.231Z,5.27
2018-05-07T09:50:38.600Z,4.00
2018-05-07T09:53:09.013Z,4.07
2018-05-07T09:55:39.646Z,3.20
2018-05-07T09:58:10.058Z,4.32
2018-05-07T10:00:40.711Z,3.03
2018-05-07T10:03:11.326Z,5.10
2018-05-07T10:05:41.767Z,2.87
2018-05-07T10:08:12.191Z,3.95
2018-05-07T10:10:42.824Z,4.20
2018-05-07T10:13:13.442Z,3.40
2018-05-07T10:15:43.913Z,3.95
2018-05-07T10:18:14.332Z,2.10
2018-05-07T10:20:45.195Z,7.60
2018-05-07T10:23:15.603Z,5.53
2018-05-07T10:25:46.052Z,4.18
2018-05-07T10:28:16.478Z,2.83
2018-05-07T10:30:46.695Z,4.03
2018-05-07T10:33:17.129Z,2.80
2018-05-07T10:35:47.593Z,3.53
2018-05-07T10:38:18.769Z,3.30
2018-05-07T10:40:49.215Z,2.33
2018-05-07T10:43:19.410Z,2.80
2018-05-07T10:45:49.892Z,4.05
2018-05-07T10:48:20.491Z,2.95
2018-05-07T10:50:50.935Z,2.47
2018-05-07T10:53:21.348Z,3.65
2018-05-07T10:55:51.806Z,2.65
2018-05-07T10:58:22.231Z,3.62
2018-05-07T11:00:52.688Z,3.05
2018-05-07T11:03:23.879Z,3.22
2018-05-07T11:05:54.322Z,3.87
2018-05-07T11:08:24.755Z,3.75
2018-05-07T11:10:54.890Z,5.00
2018-05-07T11:13:25.298Z,3.12
2018-05-07T11:15:55.748Z,4.85
2018-05-07T11:18:26.174Z,2.50
2018-05-07T11:20:56.631Z,3.53
2018-05-07T11:23:27.826Z,3.72
2018-05-07T11:25:58.482Z,4.40
2018-05-07T11:28:28.895Z,3.53
2018-05-07T11:30:59.023Z,5.73
2018-05-07T11:33:30.032Z,3.28
2018-05-07T11:36:00.243Z,4.37
2018-05-07T11:38:31.619Z,4.95
2018-05-07T11:41:02.062Z,3.22
2018-05-07T11:43:32.492Z,3.78
2018-05-07T11:46:02.934Z,5.30
2018-05-07T11:48:33.384Z,3.55
2018-05-07T11:51:04.185Z,5.75
2018-05-07T11:53:34.594Z,4.15
2018-05-07T11:56:05.105Z,3.00
2018-05-07T11:58:36.479Z,2.75
2018-05-07T12:01:06.986Z,4.20
2018-05-07T12:03:37.410Z,3.78
2018-05-07T12:06:07.864Z,2.90
2018-05-07T12:08:38.300Z,2.47
2018-05-07T12:11:08.776Z,2.60
2018-05-07T12:13:39.191Z,3.83
2018-05-07T12:16:09.686Z,2.95
2018-05-07T12:18:39.890Z,3.53
2018-05-07T12:21:10.102Z,3.33
2018-05-07T12:23:40.622Z,2.78
2018-05-07T12:26:11.050Z,1.98
2018-05-07T12:28:42.234Z,3.30
2018-05-07T12:31:12.796Z,2.53
2018-05-07T12:33:43.328Z,2.53
2018-05-07T12:36:13.783Z,3.20
2018-05-07T12:38:45.013Z,2.30
2018-05-07T12:41:15.454Z,3.33
2018-05-07T12:43:45.626Z,3.78
2018-05-07T12:46:15.826Z,2.50
2018-05-07T12:48:46.251Z,2.08
2018-05-07T12:51:16.695Z,3.67
2018-05-07T12:53:47.192Z,2.05
2018-05-07T12:56:17.623Z,3.97
2018-05-07T12:58:48.802Z,1.87
2018-05-07T13:01:19.268Z,2.97
2018-05-07T13:03:49.700Z,3.20
2018-05-07T13:06:19.904Z,2.33
2018-05-07T13:08:50.323Z,4.50
2018-05-07T13:11:20.762Z,3.78
2018-05-07T13:13:51.196Z,2.17
2018-05-07T13:16:21.639Z,2.42
2018-05-07T13:18:52.062Z,2.05
2018-05-07T13:21:22.503Z,2.35
2018-05-07T13:23:52.607Z,2.10
2018-05-07T13:26:22.739Z,2.87
2018-05-07T13:28:52.832Z,2.00
2018-05-07T13:31:22.964Z,2.07
2018-05-07T13:33:52.927Z,2.10
2018-05-07T13:36:23.757Z,3.17
2018-05-07T13:38:54.167Z,3.92
2018-05-07T13:41:24.622Z,3.00
2018-05-07T13:43:56.467Z,1.80
2018-05-07T13:46:27.855Z,2.15
2018-05-07T13:48:58.336Z,3.87
2018-05-07T13:51:28.792Z,4.05
2018-05-07T13:53:59.219Z,2.90
2018-05-07T13:56:30.427Z,2.37
2018-05-07T13:59:00.616Z,2.67
2018-05-07T14:01:31.806Z,3.33
2018-05-07T14:04:02.201Z,2.00
2018-05-07T14:06:32.364Z,1.50
2018-05-07T14:09:02.490Z,2.03
2018-05-07T14:11:32.620Z,4.60
2018-05-07T14:14:03.034Z,2.50
2018-05-07T14:16:33.617Z,1.70
2018-05-07T14:19:04.978Z,1.62
2018-05-07T14:21:35.406Z,3.62
2018-05-07T14:24:05.835Z,2.97
2018-05-07T14:26:36.320Z,1.80
2018-05-07T14:29:06.741Z,3.37
2018-05-07T14:31:37.202Z,3.03
2018-05-07T14:34:08.383Z,2.50
2018-05-07T14:36:38.807Z,3.17
2018-05-07T14:39:09.216Z,3.30
2018-05-07T14:41:39.381Z,1.60
2018-05-07T14:44:09.470Z,3.67
2018-05-07T14:46:39.934Z,3.50
2018-05-07T14:49:10.011Z,1.87
2018-05-07T14:51:40.165Z,1.63
2018-05-07T14:54:10.570Z,3.37
2018-05-07T14:56:41.851Z,3.20
2018-05-07T14:59:12.259Z,1.98
2018-05-07T15:01:43.510Z,2.85
2018-05-07T15:04:14.127Z,4.62
2018-05-07T15:06:44.314Z,2.60
2018-05-07T15:09:14.760Z,3.65
2018-05-07T15:11:45.204Z,3.47
2018-05-07T15:14:24.396Z,3.30
2018-05-07T15:16:54.828Z,2.05
2018-05-07T15:19:26.079Z,2.22
2018-05-07T15:21:56.504Z,2.62
2018-05-07T15:24:28.390Z,2.53
2018-05-07T15:26:58.757Z,2.50
2018-05-07T15:29:29.203Z,2.25
2018-05-07T15:31:59.627Z,3.22
2018-05-07T15:34:30.046Z,3.00
2018-05-07T15:37:00.466Z,3.75
2018-05-07T15:39:30.907Z,3.33
2018-05-07T15:42:01.922Z,2.37
2018-05-07T15:44:32.361Z,4.40
2018-05-07T15:47:04.116Z,3.85
2018-05-07T15:49:34.221Z,1.40
2018-05-07T15:52:04.135Z,2.67
2018-05-07T15:54:34.560Z,3.08
2018-05-07T15:57:05.794Z,4.00
2018-05-07T15:59:37.047Z,1.98
2018-05-07T16:02:07.503Z,1.75
2018-05-07T16:04:37.915Z,3.28
2018-05-07T16:07:08.406Z,3.35
2018-05-07T16:09:38.824Z,3.72
2018-05-07T16:12:09.255Z,3.78
2018-05-07T16:14:40.451Z,2.87
2018-05-07T16:17:10.651Z,2.80
2018-05-07T16:19:41.872Z,3.60
2018-05-07T16:22:12.373Z,3.10
2018-05-07T16:24:43.692Z,3.30
2018-05-07T16:27:14.124Z,3.45
2018-05-07T16:29:44.555Z,3.45
2018-05-07T16:32:14.697Z,4.13
2018-05-07T16:34:45.107Z,3.03
2018-05-07T16:37:15.572Z,1.92
2018-05-07T16:39:45.659Z,6.93
2018-05-07T16:42:16.367Z,2.85
2018-05-07T16:44:47.308Z,5.05
2018-05-07T16:47:18.527Z,1.98
2018-05-07T16:49:48.961Z,3.33
2018-05-07T16:52:20.178Z,2.58
2018-05-07T16:54:50.575Z,1.98
2018-05-07T16:57:21.014Z,2.70
2018-05-07T16:59:51.445Z,4.43
2018-05-07T17:02:21.900Z,2.83
2018-05-07T17:04:52.019Z,3.22
2018-05-07T17:07:22.466Z,2.55
2018-05-07T17:09:53.074Z,3.03
2018-05-07T17:12:23.191Z,7.73
2018-05-07T17:14:53.847Z,5.28
2018-05-07T17:17:23.967Z,6.90
2018-05-07T17:19:54.651Z,3.92
2018-05-07T17:22:25.101Z,3.62
2018-05-07T17:24:55.806Z,3.05
2018-05-07T17:27:27.026Z,2.28
2018-05-07T17:29:57.491Z,3.08
2018-05-07T17:32:28.087Z,3.65
2018-05-07T17:34:58.491Z,5.60
2018-05-07T17:37:28.583Z,7.17
2018-05-07T17:39:58.687Z,5.40
2018-05-07T17:42:29.890Z,4.47
2018-05-07T17:45:11.713Z,7.67
2018-05-07T17:47:59.577Z,4.85
2018-05-07T17:50:30.349Z,3.12
2018-05-07T17:53:00.798Z,4.37
2018-05-07T17:55:30.892Z,6.60
2018-05-07T17:58:02.362Z,3.50
2018-05-07T18:00:32.554Z,3.65
2018-05-07T18:03:03.422Z,5.90
2018-05-07T18:05:34.103Z,3.92
2018-05-07T18:08:04.559Z,5.05
2018-05-07T18:10:35.097Z,3.30
2018-05-07T18:13:05.323Z,5.50
2018-05-07T18:15:35.757Z,3.45
2018-05-07T18:18:07.083Z,4.25
2018-05-07T18:20:37.501Z,2.85
2018-05-07T18:23:08.906Z,2.33
2018-05-07T18:25:39.344Z,2.72
2018-05-07T18:28:09.834Z,3.62
2018-05-07T18:30:40.435Z,3.87
2018-05-07T18:33:11.835Z,3.03
2018-05-07T18:35:42.312Z,4.97
2018-05-07T18:38:13.711Z,4.00
2018-05-07T18:40:44.162Z,3.95
2018-05-07T18:43:14.824Z,3.45
2018-05-07T18:45:46.216Z,3.87
2018-05-07T18:48:17.658Z,4.07
2018-05-07T18:50:48.078Z,2.62
2018-05-07T18:53:18.550Z,3.55
2018-05-07T18:55:49.149Z,6.20
2018-05-07T18:58:20.661Z,4.60
2018-05-07T19:00:51.266Z,5.25
2018-05-07T19:03:21.716Z,3.53
2018-05-07T19:05:52.306Z,5.78
2018-05-07T19:08:22.957Z,5.80
2018-05-07T19:10:53.559Z,3.65
2018-05-07T19:13:24.768Z,5.57
2018-05-07T19:15:55.367Z,4.80
2018-05-07T19:18:26.023Z,3.75
2018-05-07T19:20:56.655Z,6.07
2018-05-07T19:23:26.775Z,5.53
2018-05-07T19:25:57.175Z,5.72
2018-05-07T19:28:27.811Z,4.35
2018-05-07T19:30:58.449Z,3.62
2018-05-07T19:33:28.537Z,6.07
2018-05-07T19:35:59.232Z,3.85
2018-05-07T19:38:30.077Z,4.68
2018-05-07T19:41:00.507Z,3.97
2018-05-07T19:43:31.731Z,3.50
2018-05-07T19:46:02.098Z,5.15
2018-05-07T19:48:32.290Z,6.00
2018-05-07T19:51:03.086Z,3.37
2018-05-07T19:53:33.541Z,4.55
2018-05-07T19:56:04.217Z,5.32
2018-05-07T19:58:35.642Z,3.70
2018-05-07T20:01:06.291Z,4.10
2018-05-07T20:03:37.524Z,4.15
2018-05-07T20:06:08.199Z,3.85
2018-05-07T20:08:38.865Z,3.12
2018-05-07T20:11:09.285Z,3.92
2018-05-07T20:13:39.734Z,3.00
2018-05-07T20:16:10.166Z,4.60
2018-05-07T20:18:40.616Z,3.45
2018-05-07T20:21:11.756Z,3.00
2018-05-07T20:23:42.985Z,3.65
2018-05-07T20:26:12.852Z,4.13
2018-05-07T20:28:43.283Z,3.58
2018-05-07T20:31:13.908Z,3.78
2018-05-07T20:33:45.103Z,2.72
2018-05-07T20:36:15.709Z,3.20
2018-05-07T20:38:46.159Z,3.37
2018-05-07T20:41:16.794Z,3.83
2018-05-07T20:43:47.422Z,5.10
2018-05-07T20:46:17.854Z,3.87
2018-05-07T20:48:48.490Z,3.33
2018-05-07T20:51:18.921Z,4.40
2018-05-07T20:53:49.055Z,4.97
2018-05-07T20:56:19.726Z,3.55
2018-05-07T20:58:51.148Z,4.00
2018-05-07T21:01:21.589Z,3.45
2018-05-07T21:03:52.362Z,4.10
2018-05-07T21:06:22.987Z,3.22
2018-05-07T21:08:53.451Z,2.92
2018-05-07T21:11:23.898Z,3.17
2018-05-07T21:13:54.351Z,3.20
2018-05-07T21:16:24.963Z,3.15
2018-05-07T21:18:56.189Z,3.60
2018-05-07T21:21:26.803Z,4.18
2018-05-07T21:23:57.258Z,4.22
2018-05-07T21:26:27.945Z,3.20
2018-05-07T21:28:58.598Z,3.15
2018-05-07T21:31:29.097Z,4.00
2018-05-07T21:33:59.728Z,3.30
2018-05-07T21:36:31.171Z,4.15
2018-05-07T21:39:01.812Z,3.25
2018-05-07T21:41:33.068Z,4.32
2018-05-07T21:44:04.472Z,3.20
2018-05-07T21:46:35.075Z,3.35
2018-05-07T21:49:05.226Z,2.90
2018-05-07T21:51:35.654Z,2.97
2018-05-07T21:54:06.299Z,3.17
2018-05-07T21:56:36.905Z,2.55
2018-05-07T21:59:07.371Z,4.72
2018-05-07T22:01:37.965Z,5.35
2018-05-07T22:04:09.248Z,4.18
2018-05-07T22:06:39.863Z,4.37
2018-05-07T22:09:10.522Z,2.97
2018-05-07T22:11:41.145Z,3.83
2018-05-07T22:14:11.518Z,3.65
2018-05-07T22:16:41.943Z,4.45
2018-05-07T22:19:12.397Z,4.75
2018-05-07T22:21:43.005Z,3.30
2018-05-07T22:24:13.443Z,5.15
2018-05-07T22:26:44.054Z,3.30
2018-05-07T22:29:15.466Z,4.28
2018-05-07T22:31:45.651Z,3.20
2018-05-07T22:34:16.331Z,4.45
2018-05-07T22:36:46.945Z,3.15
2018-05-07T22:39:17.587Z,3.40
2018-05-07T22:41:47.660Z,5.47
2018-05-07T22:44:18.366Z,3.00
2018-05-07T22:46:48.980Z,3.53
2018-05-07T22:49:19.623Z,3.10
2018-05-07T22:51:50.059Z,4.00
2018-05-07T22:54:20.516Z,2.85
2018-05-07T22:56:51.904Z,4.37
2018-05-07T22:59:22.322Z,6.40
2018-05-07T23:01:52.934Z,4.20
2018-05-07T23:04:23.571Z,3.12
2018-05-07T23:06:54.189Z,2.85
2018-05-07T23:09:25.592Z,3.00
2018-05-07T23:11:56.195Z,4.82
2018-05-07T23:14:26.839Z,2.92
2018-05-07T23:16:57.214Z,4.10
2018-05-07T23:19:27.852Z,2.72
2018-05-07T23:21:59.038Z,3.87
2018-05-07T23:24:29.491Z,3.92
2018-05-07T23:27:00.092Z,4.28
2018-05-07T23:29:30.546Z,3.70
2018-05-07T23:32:01.155Z,3.50
2018-05-07T23:34:31.791Z,2.62
2018-05-07T23:37:02.414Z,4.00
2018-05-07T23:39:34.655Z,3.35
2018-05-07T23:42:05.062Z,3.58
2018-05-07T23:44:35.691Z,4.68
2018-05-07T23:47:06.311Z,3.72
2018-05-07T23:49:36.958Z,3.42
2018-05-07T23:52:07.562Z,4.32
2018-05-07T23:54:38.210Z,2.78
2018-05-07T23:57:08.820Z,3.65
2018-05-07T23:59:39.269Z,2.70
